sensor_id;sensor_type;location;lat;lon;timestamp;P1;durP1;ratioP1;P2;durP2;ratioP2
45366;SDS011;31100;55.848;37.636;2023-02-11T00:01:44;20.67;;;10.60;;
45366;SDS011;31100;55.848;37.636;2023-02-11T00:04:10;19.05;;;9.57;;
45366;SDS011;31100;55.848;37.636;2023-02-11T00:06:36;22.60;;;10.52;;
45366;SDS011;31100;55.848;37.636;2023-02-11T00:09:01;18.00;;;8.85;;
45366;SDS011;31100;55.848;37.636;2023-02-11T00:11:27;17.90;;;8.57;;
45366;SDS011;31100;55.848;37.636;2023-02-11T00:14:00;18.48;;;9.23;;
45366;SDS011;31100;55.848;37.636;2023-02-11T00:16:27;17.55;;;9.15;;
45366;SDS011;31100;55.848;37.636;2023-02-11T00:18:54;16.90;;;9.18;;
45366;SDS011;31100;55.848;37.636;2023-02-11T00:21:21;17.50;;;9.60;;
45366;SDS011;31100;55.848;37.636;2023-02-11T00:23:48;17.35;;;8.70;;
45366;SDS011;31100;55.848;37.636;2023-02-11T00:28:42;17.63;;;9.50;;
45366;SDS011;31100;55.848;37.636;2023-02-11T00:31:09;16.52;;;8.23;;
45366;SDS011;31100;55.848;37.636;2023-02-11T00:33:35;17.40;;;9.45;;
45366;SDS011;31100;55.848;37.636;2023-02-11T00:36:04;14.02;;;7.95;;
45366;SDS011;31100;55.848;37.636;2023-02-11T00:38:31;17.30;;;8.88;;
45366;SDS011;31100;55.848;37.636;2023-02-11T00:40:56;19.60;;;8.88;;
45366;SDS011;31100;55.848;37.636;2023-02-11T00:43:22;18.58;;;9.25;;
45366;SDS011;31100;55.848;37.636;2023-02-11T00:45:47;16.20;;;9.38;;
45366;SDS011;31100;55.848;37.636;2023-02-11T00:48:13;17.73;;;8.10;;
45366;SDS011;31100;55.848;37.636;2023-02-11T00:50:38;16.10;;;8.20;;
45366;SDS011;31100;55.848;37.636;2023-02-11T00:53:04;19.02;;;9.10;;
45366;SDS011;31100;55.848;37.636;2023-02-11T00:55:29;15.88;;;8.20;;
45366;SDS011;31100;55.848;37.636;2023-02-11T00:57:55;15.70;;;8.85;;
45366;SDS011;31100;55.848;37.636;2023-02-11T01:00:21;16.05;;;7.82;;
45366;SDS011;31100;55.848;37.636;2023-02-11T01:02:46;19.27;;;9.43;;
45366;SDS011;31100;55.848;37.636;2023-02-11T01:05:12;20.60;;;8.95;;
45366;SDS011;31100;55.848;37.636;2023-02-11T01:07:37;20.95;;;9.07;;
45366;SDS011;31100;55.848;37.636;2023-02-11T01:10:03;17.98;;;7.85;;
45366;SDS011;31100;55.848;37.636;2023-02-11T01:12:29;15.93;;;8.45;;
45366;SDS011;31100;55.848;37.636;2023-02-11T01:14:55;16.83;;;7.53;;
45366;SDS011;31100;55.848;37.636;2023-02-11T01:17:20;16.95;;;8.77;;
45366;SDS011;31100;55.848;37.636;2023-02-11T01:19:46;18.35;;;8.23;;
45366;SDS011;31100;55.848;37.636;2023-02-11T01:22:11;17.00;;;7.50;;
45366;SDS011;31100;55.848;37.636;2023-02-11T01:24:37;15.85;;;7.63;;
45366;SDS011;31100;55.848;37.636;2023-02-11T01:27:02;17.63;;;8.75;;
45366;SDS011;31100;55.848;37.636;2023-02-11T01:29:28;15.43;;;8.02;;
45366;SDS011;31100;55.848;37.636;2023-02-11T01:31:53;20.17;;;8.50;;
45366;SDS011;31100;55.848;37.636;2023-02-11T01:34:19;16.05;;;7.47;;
45366;SDS011;31100;55.848;37.636;2023-02-11T01:36:44;16.42;;;6.95;;
45366;SDS011;31100;55.848;37.636;2023-02-11T01:39:10;12.88;;;7.15;;
45366;SDS011;31100;55.848;37.636;2023-02-11T01:41:35;15.75;;;7.78;;
45366;SDS011;31100;55.848;37.636;2023-02-11T01:47:05;15.27;;;7.47;;
45366;SDS011;31100;55.848;37.636;2023-02-11T01:49:32;14.00;;;6.90;;
45366;SDS011;31100;55.848;37.636;2023-02-11T01:54:27;12.63;;;6.53;;
45366;SDS011;31100;55.848;37.636;2023-02-11T01:57:14;16.75;;;7.15;;
45366;SDS011;31100;55.848;37.636;2023-02-11T02:02:20;15.68;;;6.45;;
45366;SDS011;31100;55.848;37.636;2023-02-11T02:07:43;12.80;;;6.55;;
45366;SDS011;31100;55.848;37.636;2023-02-11T02:10:14;11.05;;;4.88;;
45366;SDS011;31100;55.848;37.636;2023-02-11T02:12:43;13.52;;;5.45;;
45366;SDS011;31100;55.848;37.636;2023-02-11T02:15:25;16.50;;;6.60;;
45366;SDS011;31100;55.848;37.636;2023-02-11T02:17:55;13.68;;;6.13;;
45366;SDS011;31100;55.848;37.636;2023-02-11T02:23:37;11.30;;;5.25;;
45366;SDS011;31100;55.848;37.636;2023-02-11T02:34:43;12.70;;;5.10;;
45366;SDS011;31100;55.848;37.636;2023-02-11T02:37:32;11.93;;;5.13;;
45366;SDS011;31100;55.848;37.636;2023-02-11T02:40:16;11.25;;;4.47;;
45366;SDS011;31100;55.848;37.636;2023-02-11T02:42:54;13.43;;;5.30;;
45366;SDS011;31100;55.848;37.636;2023-02-11T02:45:19;12.57;;;5.50;;
45366;SDS011;31100;55.848;37.636;2023-02-11T02:47:45;9.00;;;4.68;;
45366;SDS011;31100;55.848;37.636;2023-02-11T02:50:10;10.75;;;4.80;;
45366;SDS011;31100;55.848;37.636;2023-02-11T02:52:41;11.25;;;4.35;;
45366;SDS011;31100;55.848;37.636;2023-02-11T02:55:26;11.48;;;4.85;;
45366;SDS011;31100;55.848;37.636;2023-02-11T03:05:56;11.05;;;4.93;;
45366;SDS011;31100;55.848;37.636;2023-02-11T03:08:31;9.15;;;4.85;;
45366;SDS011;31100;55.848;37.636;2023-02-11T03:11:01;9.52;;;4.53;;
45366;SDS011;31100;55.848;37.636;2023-02-11T03:13:31;13.25;;;5.43;;
45366;SDS011;31100;55.848;37.636;2023-02-11T03:16:01;14.82;;;4.55;;
45366;SDS011;31100;55.848;37.636;2023-02-11T03:18:35;10.38;;;4.90;;
45366;SDS011;31100;55.848;37.636;2023-02-11T03:21:04;9.27;;;4.22;;
45366;SDS011;31100;55.848;37.636;2023-02-11T03:23:34;10.05;;;4.95;;
45366;SDS011;31100;55.848;37.636;2023-02-11T03:26:03;9.10;;;4.28;;
45366;SDS011;31100;55.848;37.636;2023-02-11T03:33:51;9.25;;;4.00;;
45366;SDS011;31100;55.848;37.636;2023-02-11T03:39:26;11.10;;;4.78;;
45366;SDS011;31100;55.848;37.636;2023-02-11T03:41:57;12.10;;;3.85;;
45366;SDS011;31100;55.848;37.636;2023-02-11T03:44:24;10.63;;;4.20;;
45366;SDS011;31100;55.848;37.636;2023-02-11T03:46:54;8.80;;;3.92;;
45366;SDS011;31100;55.848;37.636;2023-02-11T03:49:20;9.50;;;4.22;;
45366;SDS011;31100;55.848;37.636;2023-02-11T03:51:47;9.95;;;4.35;;
45366;SDS011;31100;55.848;37.636;2023-02-11T03:54:17;10.85;;;4.80;;
45366;SDS011;31100;55.848;37.636;2023-02-11T03:56:50;9.10;;;3.75;;
45366;SDS011;31100;55.848;37.636;2023-02-11T03:59:17;13.43;;;4.40;;
45366;SDS011;31100;55.848;37.636;2023-02-11T04:01:43;13.02;;;3.58;;
45366;SDS011;31100;55.848;37.636;2023-02-11T04:04:08;9.95;;;3.70;;
45366;SDS011;31100;55.848;37.636;2023-02-11T04:06:34;9.40;;;3.55;;
45366;SDS011;31100;55.848;37.636;2023-02-11T04:09:00;10.48;;;3.95;;
45366;SDS011;31100;55.848;37.636;2023-02-11T04:11:26;11.23;;;4.03;;
45366;SDS011;31100;55.848;37.636;2023-02-11T04:13:51;10.35;;;3.00;;
45366;SDS011;31100;55.848;37.636;2023-02-11T04:16:17;7.97;;;3.28;;
45366;SDS011;31100;55.848;37.636;2023-02-11T04:18:42;7.75;;;3.10;;
45366;SDS011;31100;55.848;37.636;2023-02-11T04:21:08;7.75;;;3.35;;
45366;SDS011;31100;55.848;37.636;2023-02-11T04:23:33;8.70;;;3.17;;
45366;SDS011;31100;55.848;37.636;2023-02-11T04:25:59;8.15;;;2.97;;
45366;SDS011;31100;55.848;37.636;2023-02-11T04:28:25;8.38;;;3.70;;
45366;SDS011;31100;55.848;37.636;2023-02-11T04:30:53;7.32;;;2.83;;
45366;SDS011;31100;55.848;37.636;2023-02-11T04:33:19;6.40;;;2.90;;
45366;SDS011;31100;55.848;37.636;2023-02-11T04:35:45;8.60;;;3.25;;
45366;SDS011;31100;55.848;37.636;2023-02-11T04:38:11;7.07;;;3.10;;
45366;SDS011;31100;55.848;37.636;2023-02-11T04:40:36;7.15;;;2.65;;
45366;SDS011;31100;55.848;37.636;2023-02-11T04:43:02;8.10;;;2.75;;
45366;SDS011;31100;55.848;37.636;2023-02-11T04:45:27;6.60;;;2.70;;
45366;SDS011;31100;55.848;37.636;2023-02-11T04:47:53;8.15;;;2.85;;
45366;SDS011;31100;55.848;37.636;2023-02-11T04:50:18;7.88;;;3.10;;
45366;SDS011;31100;55.848;37.636;2023-02-11T04:52:44;8.85;;;3.22;;
45366;SDS011;31100;55.848;37.636;2023-02-11T04:55:09;12.55;;;3.75;;
45366;SDS011;31100;55.848;37.636;2023-02-11T04:57:35;7.72;;;3.00;;
45366;SDS011;31100;55.848;37.636;2023-02-11T05:00:00;10.45;;;3.30;;
45366;SDS011;31100;55.848;37.636;2023-02-11T05:02:28;11.48;;;3.92;;
45366;SDS011;31100;55.848;37.636;2023-02-11T05:04:54;7.93;;;3.28;;
45366;SDS011;31100;55.848;37.636;2023-02-11T05:07:19;11.23;;;3.88;;
45366;SDS011;31100;55.848;37.636;2023-02-11T05:09:45;7.60;;;3.30;;
45366;SDS011;31100;55.848;37.636;2023-02-11T05:12:10;9.65;;;3.47;;
45366;SDS011;31100;55.848;37.636;2023-02-11T05:14:36;8.32;;;3.50;;
45366;SDS011;31100;55.848;37.636;2023-02-11T05:17:02;12.57;;;3.72;;
45366;SDS011;31100;55.848;37.636;2023-02-11T05:19:27;9.43;;;3.40;;
45366;SDS011;31100;55.848;37.636;2023-02-11T05:21:53;9.73;;;3.38;;
45366;SDS011;31100;55.848;37.636;2023-02-11T05:24:19;7.85;;;2.83;;
45366;SDS011;31100;55.848;37.636;2023-02-11T05:26:45;7.85;;;2.92;;
45366;SDS011;31100;55.848;37.636;2023-02-11T05:29:10;10.70;;;3.88;;
45366;SDS011;31100;55.848;37.636;2023-02-11T05:31:36;9.20;;;3.38;;
45366;SDS011;31100;55.848;37.636;2023-02-11T05:34:01;9.98;;;4.05;;
45366;SDS011;31100;55.848;37.636;2023-02-11T05:36:28;6.63;;;2.80;;
45366;SDS011;31100;55.848;37.636;2023-02-11T05:38:54;8.82;;;3.10;;
45366;SDS011;31100;55.848;37.636;2023-02-11T05:41:19;9.48;;;3.25;;
45366;SDS011;31100;55.848;37.636;2023-02-11T05:43:47;9.35;;;3.00;;
45366;SDS011;31100;55.848;37.636;2023-02-11T05:46:15;8.32;;;3.13;;
45366;SDS011;31100;55.848;37.636;2023-02-11T05:48:41;10.15;;;3.47;;
45366;SDS011;31100;55.848;37.636;2023-02-11T05:51:07;7.82;;;2.92;;
45366;SDS011;31100;55.848;37.636;2023-02-11T05:53:32;11.57;;;3.58;;
45366;SDS011;31100;55.848;37.636;2023-02-11T05:55:58;6.18;;;2.42;;
45366;SDS011;31100;55.848;37.636;2023-02-11T05:58:23;6.80;;;2.47;;
45366;SDS011;31100;55.848;37.636;2023-02-11T06:00:49;9.00;;;2.88;;
45366;SDS011;31100;55.848;37.636;2023-02-11T06:03:14;7.28;;;3.03;;
45366;SDS011;31100;55.848;37.636;2023-02-11T06:05:41;7.88;;;3.05;;
45366;SDS011;31100;55.848;37.636;2023-02-11T06:08:07;9.35;;;3.60;;
45366;SDS011;31100;55.848;37.636;2023-02-11T06:10:33;9.63;;;3.13;;
45366;SDS011;31100;55.848;37.636;2023-02-11T06:12:59;6.32;;;2.85;;
45366;SDS011;31100;55.848;37.636;2023-02-11T06:15:26;14.45;;;4.60;;
45366;SDS011;31100;55.848;37.636;2023-02-11T06:17:51;14.68;;;3.88;;
45366;SDS011;31100;55.848;37.636;2023-02-11T06:20:17;9.55;;;3.50;;
45366;SDS011;31100;55.848;37.636;2023-02-11T06:22:42;9.02;;;3.42;;
45366;SDS011;31100;55.848;37.636;2023-02-11T06:25:08;8.55;;;2.97;;
45366;SDS011;31100;55.848;37.636;2023-02-11T06:27:35;7.35;;;3.10;;
45366;SDS011;31100;55.848;37.636;2023-02-11T06:30:01;11.45;;;3.88;;
45366;SDS011;31100;55.848;37.636;2023-02-11T06:32:30;8.60;;;3.45;;
45366;SDS011;31100;55.848;37.636;2023-02-11T06:34:55;14.98;;;4.03;;
45366;SDS011;31100;55.848;37.636;2023-02-11T06:37:21;11.38;;;3.70;;
45366;SDS011;31100;55.848;37.636;2023-02-11T06:39:46;8.15;;;3.40;;
45366;SDS011;31100;55.848;37.636;2023-02-11T06:42:12;7.25;;;2.85;;
45366;SDS011;31100;55.848;37.636;2023-02-11T06:44:37;6.88;;;2.92;;
45366;SDS011;31100;55.848;37.636;2023-02-11T06:47:03;8.68;;;3.85;;
45366;SDS011;31100;55.848;37.636;2023-02-11T06:49:28;10.68;;;3.58;;
45366;SDS011;31100;55.848;37.636;2023-02-11T06:51:54;10.98;;;4.22;;
45366;SDS011;31100;55.848;37.636;2023-02-11T06:54:20;8.70;;;3.40;;
45366;SDS011;31100;55.848;37.636;2023-02-11T06:56:45;11.50;;;3.63;;
45366;SDS011;31100;55.848;37.636;2023-02-11T06:59:14;10.88;;;3.90;;
45366;SDS011;31100;55.848;37.636;2023-02-11T07:01:40;7.15;;;3.17;;
45366;SDS011;31100;55.848;37.636;2023-02-11T07:04:06;7.13;;;2.75;;
45366;SDS011;31100;55.848;37.636;2023-02-11T07:06:32;12.63;;;3.38;;
45366;SDS011;31100;55.848;37.636;2023-02-11T07:08:58;9.80;;;3.80;;
45366;SDS011;31100;55.848;37.636;2023-02-11T07:11:24;8.90;;;3.88;;
45366;SDS011;31100;55.848;37.636;2023-02-11T07:13:52;12.40;;;6.10;;
45366;SDS011;31100;55.848;37.636;2023-02-11T07:16:20;5.88;;;3.03;;
45366;SDS011;31100;55.848;37.636;2023-02-11T07:18:46;7.97;;;3.50;;
45366;SDS011;31100;55.848;37.636;2023-02-11T07:21:14;9.50;;;3.40;;
45366;SDS011;31100;55.848;37.636;2023-02-11T07:23:41;7.28;;;3.00;;
45366;SDS011;31100;55.848;37.636;2023-02-11T07:26:08;8.07;;;3.50;;
45366;SDS011;31100;55.848;37.636;2023-02-11T07:28:35;7.60;;;3.47;;
45366;SDS011;31100;55.848;37.636;2023-02-11T07:31:20;8.57;;;3.25;;
45366;SDS011;31100;55.848;37.636;2023-02-11T07:33:47;6.95;;;3.45;;
45366;SDS011;31100;55.848;37.636;2023-02-11T07:36:14;7.45;;;3.50;;
45366;SDS011;31100;55.848;37.636;2023-02-11T07:38:40;9.10;;;3.88;;
45366;SDS011;31100;55.848;37.636;2023-02-11T07:41:07;11.00;;;3.78;;
45366;SDS011;31100;55.848;37.636;2023-02-11T07:43:34;8.63;;;3.78;;
45366;SDS011;31100;55.848;37.636;2023-02-11T07:46:04;9.32;;;3.40;;
45366;SDS011;31100;55.848;37.636;2023-02-11T07:48:31;14.50;;;4.90;;
45366;SDS011;31100;55.848;37.636;2023-02-11T07:51:06;9.45;;;3.67;;
45366;SDS011;31100;55.848;37.636;2023-02-11T07:53:36;9.13;;;4.40;;
45366;SDS011;31100;55.848;37.636;2023-02-11T07:56:02;11.02;;;4.63;;
45366;SDS011;31100;55.848;37.636;2023-02-11T07:58:29;10.48;;;4.50;;
45366;SDS011;31100;55.848;37.636;2023-02-11T08:00:54;12.82;;;4.90;;
45366;SDS011;31100;55.848;37.636;2023-02-11T08:03:25;8.35;;;4.75;;
45366;SDS011;31100;55.848;37.636;2023-02-11T08:05:50;9.07;;;4.78;;
45366;SDS011;31100;55.848;37.636;2023-02-11T08:08:16;12.40;;;5.20;;
45366;SDS011;31100;55.848;37.636;2023-02-11T08:10:41;11.23;;;5.28;;
45366;SDS011;31100;55.848;37.636;2023-02-11T08:13:07;10.35;;;5.05;;
45366;SDS011;31100;55.848;37.636;2023-02-11T08:15:32;11.80;;;5.60;;
45366;SDS011;31100;55.848;37.636;2023-02-11T08:17:58;11.50;;;4.55;;
45366;SDS011;31100;55.848;37.636;2023-02-11T08:20:23;12.32;;;5.07;;
45366;SDS011;31100;55.848;37.636;2023-02-11T08:22:49;12.50;;;5.43;;
45366;SDS011;31100;55.848;37.636;2023-02-11T08:25:14;13.55;;;6.07;;
45366;SDS011;31100;55.848;37.636;2023-02-11T08:27:40;13.65;;;6.30;;
45366;SDS011;31100;55.848;37.636;2023-02-11T08:30:05;16.02;;;6.13;;
45366;SDS011;31100;55.848;37.636;2023-02-11T08:32:33;12.00;;;6.07;;
45366;SDS011;31100;55.848;37.636;2023-02-11T08:34:58;10.55;;;5.25;;
45366;SDS011;31100;55.848;37.636;2023-02-11T08:37:24;9.38;;;5.00;;
45366;SDS011;31100;55.848;37.636;2023-02-11T08:39:50;12.65;;;6.28;;
45366;SDS011;31100;55.848;37.636;2023-02-11T08:42:15;13.20;;;6.82;;
45366;SDS011;31100;55.848;37.636;2023-02-11T08:44:41;15.48;;;6.22;;
45366;SDS011;31100;55.848;37.636;2023-02-11T08:47:07;13.63;;;6.65;;
45366;SDS011;31100;55.848;37.636;2023-02-11T08:49:32;15.75;;;8.40;;
45366;SDS011;31100;55.848;37.636;2023-02-11T08:51:58;14.98;;;6.85;;
45366;SDS011;31100;55.848;37.636;2023-02-11T08:54:28;13.75;;;6.38;;
45366;SDS011;31100;55.848;37.636;2023-02-11T08:56:55;14.32;;;7.18;;
45366;SDS011;31100;55.848;37.636;2023-02-11T08:59:21;15.02;;;7.05;;
45366;SDS011;31100;55.848;37.636;2023-02-11T09:01:47;15.15;;;6.60;;
45366;SDS011;31100;55.848;37.636;2023-02-11T09:04:12;13.98;;;6.57;;
45366;SDS011;31100;55.848;37.636;2023-02-11T09:06:38;12.07;;;5.70;;
45366;SDS011;31100;55.848;37.636;2023-02-11T09:09:03;10.82;;;5.90;;
45366;SDS011;31100;55.848;37.636;2023-02-11T09:11:31;11.85;;;6.00;;
45366;SDS011;31100;55.848;37.636;2023-02-11T09:13:58;14.80;;;5.78;;
45366;SDS011;31100;55.848;37.636;2023-02-11T09:16:25;13.38;;;5.03;;
45366;SDS011;31100;55.848;37.636;2023-02-11T09:18:56;12.77;;;6.20;;
45366;SDS011;31100;55.848;37.636;2023-02-11T09:21:23;10.93;;;5.68;;
45366;SDS011;31100;55.848;37.636;2023-02-11T09:23:49;14.60;;;6.50;;
45366;SDS011;31100;55.848;37.636;2023-02-11T09:26:24;12.38;;;6.15;;
45366;SDS011;31100;55.848;37.636;2023-02-11T09:28:52;16.52;;;7.28;;
45366;SDS011;31100;55.848;37.636;2023-02-11T09:31:20;13.45;;;7.78;;
45366;SDS011;31100;55.848;37.636;2023-02-11T09:33:47;13.10;;;6.90;;
45366;SDS011;31100;55.848;37.636;2023-02-11T09:36:15;12.70;;;6.15;;
45366;SDS011;31100;55.848;37.636;2023-02-11T09:38:45;13.48;;;6.40;;
45366;SDS011;31100;55.848;37.636;2023-02-11T09:44:23;14.57;;;6.25;;
45366;SDS011;31100;55.848;37.636;2023-02-11T09:46:54;12.70;;;5.88;;
45366;SDS011;31100;55.848;37.636;2023-02-11T09:49:38;14.73;;;5.88;;
45366;SDS011;31100;55.848;37.636;2023-02-11T09:52:26;11.27;;;5.65;;
45366;SDS011;31100;55.848;37.636;2023-02-11T09:54:58;11.80;;;6.20;;
45366;SDS011;31100;55.848;37.636;2023-02-11T09:57:25;11.70;;;5.85;;
45366;SDS011;31100;55.848;37.636;2023-02-11T09:59:56;13.30;;;6.07;;
45366;SDS011;31100;55.848;37.636;2023-02-11T10:02:23;9.98;;;5.75;;
45366;SDS011;31100;55.848;37.636;2023-02-11T10:05:09;15.65;;;5.90;;
45366;SDS011;31100;55.848;37.636;2023-02-11T10:10:46;10.52;;;5.68;;
45366;SDS011;31100;55.848;37.636;2023-02-11T10:16:30;13.68;;;5.85;;
45366;SDS011;31100;55.848;37.636;2023-02-11T10:24:36;13.63;;;5.47;;
45366;SDS011;31100;55.848;37.636;2023-02-11T10:27:21;9.85;;;5.82;;
45366;SDS011;31100;55.848;37.636;2023-02-11T10:29:55;11.50;;;5.75;;
45366;SDS011;31100;55.848;37.636;2023-02-11T10:33:30;12.00;;;5.47;;
45366;SDS011;31100;55.848;37.636;2023-02-11T10:35:38;12.60;;;6.03;;
45366;SDS011;31100;55.848;37.636;2023-02-11T10:38:03;12.82;;;5.40;;
45366;SDS011;31100;55.848;37.636;2023-02-11T10:40:30;13.27;;;7.20;;
45366;SDS011;31100;55.848;37.636;2023-02-11T10:42:57;16.38;;;6.47;;
45366;SDS011;31100;55.848;37.636;2023-02-11T10:45:32;10.32;;;4.68;;
45366;SDS011;31100;55.848;37.636;2023-02-11T10:48:00;12.32;;;6.28;;
45366;SDS011;31100;55.848;37.636;2023-02-11T10:50:31;16.58;;;6.68;;
45366;SDS011;31100;55.848;37.636;2023-02-11T10:55:42;15.10;;;6.40;;
45366;SDS011;31100;55.848;37.636;2023-02-11T10:58:29;15.65;;;7.07;;
45366;SDS011;31100;55.848;37.636;2023-02-11T11:00:57;15.52;;;6.53;;
45366;SDS011;31100;55.848;37.636;2023-02-11T11:03:25;11.13;;;6.05;;
45366;SDS011;31100;55.848;37.636;2023-02-11T11:06:02;13.63;;;6.55;;
45366;SDS011;31100;55.848;37.636;2023-02-11T11:08:46;14.68;;;6.57;;
45366;SDS011;31100;55.848;37.636;2023-02-11T11:11:15;16.75;;;6.05;;
45366;SDS011;31100;55.848;37.636;2023-02-11T11:16:21;10.55;;;5.55;;
45366;SDS011;31100;55.848;37.636;2023-02-11T11:19:18;14.43;;;6.55;;
45366;SDS011;31100;55.848;37.636;2023-02-11T11:21:53;15.00;;;6.47;;
45366;SDS011;31100;55.848;37.636;2023-02-11T11:26:59;10.75;;;6.30;;
45366;SDS011;31100;55.848;37.636;2023-02-11T11:29:31;13.15;;;5.60;;
45366;SDS011;31100;55.848;37.636;2023-02-11T11:32:00;15.40;;;6.60;;
45366;SDS011;31100;55.848;37.636;2023-02-11T11:34:33;13.30;;;6.07;;
45366;SDS011;31100;55.848;37.636;2023-02-11T11:37:36;13.30;;;6.93;;
45366;SDS011;31100;55.848;37.636;2023-02-11T11:40:06;13.40;;;7.00;;
45366;SDS011;31100;55.848;37.636;2023-02-11T11:42:34;14.13;;;7.25;;
45366;SDS011;31100;55.848;37.636;2023-02-11T11:45:05;15.35;;;7.20;;
45366;SDS011;31100;55.848;37.636;2023-02-11T11:47:55;16.63;;;6.75;;
45366;SDS011;31100;55.848;37.636;2023-02-11T11:50:25;19.10;;;7.40;;
45366;SDS011;31100;55.848;37.636;2023-02-11T11:55:52;14.32;;;7.57;;
45366;SDS011;31100;55.848;37.636;2023-02-11T11:58:24;18.40;;;8.07;;
45366;SDS011;31100;55.848;37.636;2023-02-11T12:09:24;14.40;;;6.75;;
45366;SDS011;31100;55.848;37.636;2023-02-11T12:14:48;10.50;;;6.03;;
45366;SDS011;31100;55.848;37.636;2023-02-11T12:17:45;13.27;;;6.50;;
45366;SDS011;31100;55.848;37.636;2023-02-11T12:26:17;14.25;;;7.05;;
45366;SDS011;31100;55.848;37.636;2023-02-11T12:28:51;13.38;;;6.47;;
45366;SDS011;31100;55.848;37.636;2023-02-11T12:31:33;12.40;;;6.55;;
45366;SDS011;31100;55.848;37.636;2023-02-11T12:35:14;13.18;;;6.60;;
45366;SDS011;31100;55.848;37.636;2023-02-11T12:37:41;18.15;;;7.55;;
45366;SDS011;31100;55.848;37.636;2023-02-11T12:40:42;16.00;;;7.13;;
45366;SDS011;31100;55.848;37.636;2023-02-11T12:58:42;13.23;;;7.28;;
45366;SDS011;31100;55.848;37.636;2023-02-11T13:01:30;18.40;;;9.18;;
45366;SDS011;31100;55.848;37.636;2023-02-11T13:04:00;19.60;;;8.27;;
45366;SDS011;31100;55.848;37.636;2023-02-11T13:06:28;14.32;;;7.60;;
45366;SDS011;31100;55.848;37.636;2023-02-11T13:09:00;18.40;;;7.05;;
45366;SDS011;31100;55.848;37.636;2023-02-11T13:11:37;17.15;;;8.70;;
45366;SDS011;31100;55.848;37.636;2023-02-11T13:16:53;16.88;;;8.38;;
45366;SDS011;31100;55.848;37.636;2023-02-11T13:19:33;16.08;;;7.82;;
45366;SDS011;31100;55.848;37.636;2023-02-11T13:22:23;16.55;;;8.15;;
45366;SDS011;31100;55.848;37.636;2023-02-11T13:25:05;17.63;;;8.60;;
45366;SDS011;31100;55.848;37.636;2023-02-11T13:27:59;17.05;;;7.00;;
45366;SDS011;31100;55.848;37.636;2023-02-11T13:30:30;14.85;;;7.75;;
45366;SDS011;31100;55.848;37.636;2023-02-11T13:35:29;18.55;;;8.63;;
45366;SDS011;31100;55.848;37.636;2023-02-11T13:37:55;15.82;;;7.80;;
45366;SDS011;31100;55.848;37.636;2023-02-11T13:40:23;18.80;;;9.57;;
45366;SDS011;31100;55.848;37.636;2023-02-11T13:42:51;18.77;;;8.32;;
45366;SDS011;31100;55.848;37.636;2023-02-11T13:47:57;20.85;;;8.70;;
45366;SDS011;31100;55.848;37.636;2023-02-11T13:50:24;21.30;;;8.70;;
45366;SDS011;31100;55.848;37.636;2023-02-11T13:53:01;22.65;;;9.38;;
45366;SDS011;31100;55.848;37.636;2023-02-11T13:55:27;18.55;;;9.13;;
45366;SDS011;31100;55.848;37.636;2023-02-11T14:14:23;20.60;;;8.90;;
45366;SDS011;31100;55.848;37.636;2023-02-11T14:22:10;28.90;;;10.70;;
45366;SDS011;31100;55.848;37.636;2023-02-11T14:25:02;18.90;;;9.35;;
45366;SDS011;31100;55.848;37.636;2023-02-11T14:30:25;23.95;;;10.57;;
45366;SDS011;31100;55.848;37.636;2023-02-11T14:33:00;21.00;;;9.77;;
45366;SDS011;31100;55.848;37.636;2023-02-11T14:41:25;22.17;;;9.80;;
45366;SDS011;31100;55.848;37.636;2023-02-11T14:44:00;19.75;;;9.80;;
45366;SDS011;31100;55.848;37.636;2023-02-11T14:46:29;21.77;;;9.43;;
45366;SDS011;31100;55.848;37.636;2023-02-11T14:48:57;22.25;;;10.00;;
45366;SDS011;31100;55.848;37.636;2023-02-11T14:51:25;20.90;;;9.48;;
45366;SDS011;31100;55.848;37.636;2023-02-11T14:53:54;23.63;;;10.70;;
45366;SDS011;31100;55.848;37.636;2023-02-11T14:56:24;19.40;;;9.60;;
45366;SDS011;31100;55.848;37.636;2023-02-11T14:58:52;22.08;;;10.27;;
45366;SDS011;31100;55.848;37.636;2023-02-11T15:04:03;22.50;;;10.18;;
45366;SDS011;31100;55.848;37.636;2023-02-11T15:09:12;27.95;;;12.25;;
45366;SDS011;31100;55.848;37.636;2023-02-11T15:11:40;26.75;;;10.70;;
45366;SDS011;31100;55.848;37.636;2023-02-11T15:14:25;26.92;;;11.02;;
45366;SDS011;31100;55.848;37.636;2023-02-11T15:16:53;21.23;;;10.02;;
45366;SDS011;31100;55.848;37.636;2023-02-11T15:21:54;26.73;;;11.17;;
45366;SDS011;31100;55.848;37.636;2023-02-11T15:24:27;21.27;;;8.80;;
45366;SDS011;31100;55.848;37.636;2023-02-11T15:26:55;24.58;;;10.50;;
45366;SDS011;31100;55.848;37.636;2023-02-11T15:29:25;19.50;;;9.32;;
45366;SDS011;31100;55.848;37.636;2023-02-11T15:34:39;25.60;;;10.38;;
45366;SDS011;31100;55.848;37.636;2023-02-11T15:37:05;25.27;;;10.25;;
45366;SDS011;31100;55.848;37.636;2023-02-11T15:39:32;22.05;;;10.05;;
45366;SDS011;31100;55.848;37.636;2023-02-11T15:44:47;21.58;;;10.35;;
45366;SDS011;31100;55.848;37.636;2023-02-11T15:47:19;25.15;;;10.88;;
45366;SDS011;31100;55.848;37.636;2023-02-11T15:49:45;24.55;;;10.60;;
45366;SDS011;31100;55.848;37.636;2023-02-11T15:52:12;20.73;;;9.27;;
45366;SDS011;31100;55.848;37.636;2023-02-11T15:54:39;24.10;;;10.48;;
45366;SDS011;31100;55.848;37.636;2023-02-11T15:57:06;25.40;;;11.98;;
45366;SDS011;31100;55.848;37.636;2023-02-11T15:59:37;22.95;;;9.35;;
45366;SDS011;31100;55.848;37.636;2023-02-11T16:02:04;22.05;;;9.32;;
45366;SDS011;31100;55.848;37.636;2023-02-11T16:04:38;25.50;;;12.85;;
45366;SDS011;31100;55.848;37.636;2023-02-11T16:07:03;27.00;;;11.80;;
45366;SDS011;31100;55.848;37.636;2023-02-11T16:09:31;24.05;;;11.02;;
45366;SDS011;31100;55.848;37.636;2023-02-11T16:12:00;19.52;;;9.82;;
45366;SDS011;31100;55.848;37.636;2023-02-11T16:14:41;23.05;;;9.60;;
45366;SDS011;31100;55.848;37.636;2023-02-11T16:19:49;22.67;;;10.35;;
45366;SDS011;31100;55.848;37.636;2023-02-11T16:22:21;20.58;;;9.82;;
45366;SDS011;31100;55.848;37.636;2023-02-11T16:24:52;14.90;;;7.55;;
45366;SDS011;31100;55.848;37.636;2023-02-11T16:27:24;23.98;;;10.13;;
45366;SDS011;31100;55.848;37.636;2023-02-11T16:29:53;24.83;;;9.77;;
45366;SDS011;31100;55.848;37.636;2023-02-11T16:32:20;24.67;;;9.75;;
45366;SDS011;31100;55.848;37.636;2023-02-11T16:34:48;23.08;;;10.10;;
45366;SDS011;31100;55.848;37.636;2023-02-11T16:37:13;24.23;;;10.32;;
45366;SDS011;31100;55.848;37.636;2023-02-11T16:39:39;19.70;;;9.18;;
45366;SDS011;31100;55.848;37.636;2023-02-11T16:42:05;23.90;;;10.07;;
45366;SDS011;31100;55.848;37.636;2023-02-11T16:44:33;19.70;;;9.05;;
45366;SDS011;31100;55.848;37.636;2023-02-11T16:46:59;20.65;;;9.45;;
45366;SDS011;31100;55.848;37.636;2023-02-11T16:49:28;22.40;;;9.65;;
45366;SDS011;31100;55.848;37.636;2023-02-11T16:51:57;24.17;;;9.52;;
45366;SDS011;31100;55.848;37.636;2023-02-11T16:54:25;22.65;;;9.77;;
45366;SDS011;31100;55.848;37.636;2023-02-11T16:56:51;18.67;;;8.32;;
45366;SDS011;31100;55.848;37.636;2023-02-11T16:59:17;23.35;;;9.93;;
45366;SDS011;31100;55.848;37.636;2023-02-11T17:01:43;24.75;;;10.32;;
45366;SDS011;31100;55.848;37.636;2023-02-11T17:04:10;22.38;;;10.60;;
45366;SDS011;31100;55.848;37.636;2023-02-11T17:06:48;21.20;;;9.55;;
45366;SDS011;31100;55.848;37.636;2023-02-11T17:09:17;19.27;;;8.73;;
45366;SDS011;31100;55.848;37.636;2023-02-11T17:11:45;20.38;;;9.57;;